« Back
NWS Peachtree City, Ga » Text Product » AHN Terminal Aerodrome Forecast


Printer-friendly Version
Current Version              Previous Versions:   1  2  3  4  5  6  7  8  9  

Terminal Aerodrome Forecast

987
FTAK31 PAJN 222300
TAFAHN
TAF
PAHN 222321Z 2300/2324 08008KT P6SM -SHRA BKN020 OVC030
     FM230200 VRB05KT P6SM VCSH BKN040 OVC045
     FM230800 31010KT P6SM SCT040 BKN060
      AMD LTD TO CLD VIS AND WIND=



USA.gov is the U.S. government's official web portal to all federal, state and local government web resources and services.